sensor_id;sensor_type;location;lat;lon;timestamp;temperature;humidity
24207;DHT22;12351;52.284;9.160;2023-04-24T00:01:20;12.30;1.00
24207;DHT22;12351;52.284;9.160;2023-04-24T00:04:11;12.30;1.00
24207;DHT22;12351;52.284;9.160;2023-04-24T00:06:59;12.30;1.00
24207;DHT22;12351;52.284;9.160;2023-04-24T00:09:49;12.30;1.00
24207;DHT22;12351;52.284;9.160;2023-04-24T00:12:39;12.30;1.00
24207;DHT22;12351;52.284;9.160;2023-04-24T00:15:26;12.20;1.00
24207;DHT22;12351;52.284;9.160;2023-04-24T00:18:16;12.30;1.00
24207;DHT22;12351;52.284;9.160;2023-04-24T00:21:04;12.20;1.00
24207;DHT22;12351;52.284;9.160;2023-04-24T00:23:52;12.20;1.00
24207;DHT22;12351;52.284;9.160;2023-04-24T00:26:42;12.20;1.00
24207;DHT22;12351;52.284;9.160;2023-04-24T00:29:31;12.20;1.00
24207;DHT22;12351;52.284;9.160;2023-04-24T00:32:19;12.10;1.00
24207;DHT22;12351;52.284;9.160;2023-04-24T00:35:07;12.00;1.00
24207;DHT22;12351;52.284;9.160;2023-04-24T00:37:55;12.00;1.00
24207;DHT22;12351;52.284;9.160;2023-04-24T00:40:43;11.90;99.90
24207;DHT22;12351;52.284;9.160;2023-04-24T00:43:32;11.80;1.00
24207;DHT22;12351;52.284;9.160;2023-04-24T00:46:21;11.90;99.90
24207;DHT22;12351;52.284;9.160;2023-04-24T00:49:09;11.80;99.90
24207;DHT22;12351;52.284;9.160;2023-04-24T00:51:57;11.80;22.90
24207;DHT22;12351;52.284;9.160;2023-04-24T00:54:46;11.80;99.90
24207;DHT22;12351;52.284;9.160;2023-04-24T00:57:36;11.70;40.40
24207;DHT22;12351;52.284;9.160;2023-04-24T01:00:23;11.60;99.90
24207;DHT22;12351;52.284;9.160;2023-04-24T01:03:11;11.60;99.90
24207;DHT22;12351;52.284;9.160;2023-04-24T01:06:02;11.70;40.50
24207;DHT22;12351;52.284;9.160;2023-04-24T01:08:53;11.60;99.90
24207;DHT22;12351;52.284;9.160;2023-04-24T01:11:42;11.50;99.90
24207;DHT22;12351;52.284;9.160;2023-04-24T01:14:31;11.50;99.90
24207;DHT22;12351;52.284;9.160;2023-04-24T01:17:21;11.50;99.90
24207;DHT22;12351;52.284;9.160;2023-04-24T01:20:09;11.50;1.00
24207;DHT22;12351;52.284;9.160;2023-04-24T01:22:56;11.50;1.00
24207;DHT22;12351;52.284;9.160;2023-04-24T01:25:45;11.50;1.00
24207;DHT22;12351;52.284;9.160;2023-04-24T01:28:36;11.50;1.00
24207;DHT22;12351;52.284;9.160;2023-04-24T01:31:25;11.50;1.00
24207;DHT22;12351;52.284;9.160;2023-04-24T01:34:12;11.50;1.00
24207;DHT22;12351;52.284;9.160;2023-04-24T01:37:05;11.50;26.30
24207;DHT22;12351;52.284;9.160;2023-04-24T01:39:52;11.40;99.90
24207;DHT22;12351;52.284;9.160;2023-04-24T01:42:41;11.40;99.90
24207;DHT22;12351;52.284;9.160;2023-04-24T01:45:30;11.30;99.90
24207;DHT22;12351;52.284;9.160;2023-04-24T01:48:18;11.30;99.90
24207;DHT22;12351;52.284;9.160;2023-04-24T01:51:05;11.30;99.90
24207;DHT22;12351;52.284;9.160;2023-04-24T01:53:54;11.30;99.90
24207;DHT22;12351;52.284;9.160;2023-04-24T01:56:43;11.30;99.90
24207;DHT22;12351;52.284;9.160;2023-04-24T01:59:34;11.30;99.90
24207;DHT22;12351;52.284;9.160;2023-04-24T02:02:22;11.30;99.90
24207;DHT22;12351;52.284;9.160;2023-04-24T02:05:13;11.30;99.90
24207;DHT22;12351;52.284;9.160;2023-04-24T02:08:01;11.30;99.90
24207;DHT22;12351;52.284;9.160;2023-04-24T02:10:50;11.30;99.90
24207;DHT22;12351;52.284;9.160;2023-04-24T02:13:40;11.20;99.90
24207;DHT22;12351;52.284;9.160;2023-04-24T02:16:29;11.20;99.90
24207;DHT22;12351;52.284;9.160;2023-04-24T02:19:19;11.30;99.90
24207;DHT22;12351;52.284;9.160;2023-04-24T02:22:06;11.20;99.90
24207;DHT22;12351;52.284;9.160;2023-04-24T02:24:53;11.20;99.90
24207;DHT22;12351;52.284;9.160;2023-04-24T02:27:40;11.20;99.90
24207;DHT22;12351;52.284;9.160;2023-04-24T02:30:27;11.10;99.90
24207;DHT22;12351;52.284;9.160;2023-04-24T02:33:14;11.10;99.90
24207;DHT22;12351;52.284;9.160;2023-04-24T02:36:04;11.10;99.90
24207;DHT22;12351;52.284;9.160;2023-04-24T02:38:53;11.00;99.90
24207;DHT22;12351;52.284;9.160;2023-04-24T02:41:43;11.00;99.90
24207;DHT22;12351;52.284;9.160;2023-04-24T02:44:33;11.00;99.90
24207;DHT22;12351;52.284;9.160;2023-04-24T02:47:23;10.90;99.90
24207;DHT22;12351;52.284;9.160;2023-04-24T02:50:11;10.90;99.90
24207;DHT22;12351;52.284;9.160;2023-04-24T02:53:00;10.80;99.90
24207;DHT22;12351;52.284;9.160;2023-04-24T02:55:50;10.80;99.90
24207;DHT22;12351;52.284;9.160;2023-04-24T02:58:40;10.80;99.90
24207;DHT22;12351;52.284;9.160;2023-04-24T03:01:30;10.80;99.90
24207;DHT22;12351;52.284;9.160;2023-04-24T03:04:19;10.80;99.90
24207;DHT22;12351;52.284;9.160;2023-04-24T03:07:06;10.80;99.90
24207;DHT22;12351;52.284;9.160;2023-04-24T03:09:54;10.70;99.90
24207;DHT22;12351;52.284;9.160;2023-04-24T03:12:42;10.70;99.90
24207;DHT22;12351;52.284;9.160;2023-04-24T03:15:31;10.70;99.90
24207;DHT22;12351;52.284;9.160;2023-04-24T03:18:18;10.70;99.90
24207;DHT22;12351;52.284;9.160;2023-04-24T03:21:07;10.70;99.90
24207;DHT22;12351;52.284;9.160;2023-04-24T03:23:56;10.70;99.90
24207;DHT22;12351;52.284;9.160;2023-04-24T03:26:49;10.70;99.90
24207;DHT22;12351;52.284;9.160;2023-04-24T03:29:36;10.70;99.90
24207;DHT22;12351;52.284;9.160;2023-04-24T03:32:23;10.70;99.90
24207;DHT22;12351;52.284;9.160;2023-04-24T03:35:10;10.70;99.90
24207;DHT22;12351;52.284;9.160;2023-04-24T03:37:59;10.60;99.90
24207;DHT22;12351;52.284;9.160;2023-04-24T03:40:46;10.60;99.90
24207;DHT22;12351;52.284;9.160;2023-04-24T03:43:33;10.60;99.90
24207;DHT22;12351;52.284;9.160;2023-04-24T03:46:22;10.60;99.90
24207;DHT22;12351;52.284;9.160;2023-04-24T03:49:11;10.60;99.90
24207;DHT22;12351;52.284;9.160;2023-04-24T03:52:01;10.60;99.90
24207;DHT22;12351;52.284;9.160;2023-04-24T03:54:48;10.60;1.00
24207;DHT22;12351;52.284;9.160;2023-04-24T03:57:35;10.60;1.00
24207;DHT22;12351;52.284;9.160;2023-04-24T04:00:22;10.60;1.00
24207;DHT22;12351;52.284;9.160;2023-04-24T04:03:09;10.60;1.00
24207;DHT22;12351;52.284;9.160;2023-04-24T04:06:02;10.60;1.00
24207;DHT22;12351;52.284;9.160;2023-04-24T04:08:48;10.60;1.00
24207;DHT22;12351;52.284;9.160;2023-04-24T04:11:36;10.70;1.00
24207;DHT22;12351;52.284;9.160;2023-04-24T04:14:26;10.60;1.00
24207;DHT22;12351;52.284;9.160;2023-04-24T04:17:15;10.60;1.00
24207;DHT22;12351;52.284;9.160;2023-04-24T04:20:06;10.60;1.00
24207;DHT22;12351;52.284;9.160;2023-04-24T04:22:55;10.60;1.00
24207;DHT22;12351;52.284;9.160;2023-04-24T04:25:43;10.60;1.00
24207;DHT22;12351;52.284;9.160;2023-04-24T04:28:32;10.70;1.00
24207;DHT22;12351;52.284;9.160;2023-04-24T04:31:20;10.60;99.90
24207;DHT22;12351;52.284;9.160;2023-04-24T04:34:09;10.70;1.00
24207;DHT22;12351;52.284;9.160;2023-04-24T04:36:59;10.70;1.00
24207;DHT22;12351;52.284;9.160;2023-04-24T04:39:47;10.70;1.00
24207;DHT22;12351;52.284;9.160;2023-04-24T04:42:35;10.70;1.00
24207;DHT22;12351;52.284;9.160;2023-04-24T04:45:25;10.70;1.00
24207;DHT22;12351;52.284;9.160;2023-04-24T04:48:15;10.70;1.00
24207;DHT22;12351;52.284;9.160;2023-04-24T04:51:04;10.70;1.00
24207;DHT22;12351;52.284;9.160;2023-04-24T04:53:54;10.70;1.00
24207;DHT22;12351;52.284;9.160;2023-04-24T04:56:44;10.70;1.00
24207;DHT22;12351;52.284;9.160;2023-04-24T04:59:32;10.70;1.00
24207;DHT22;12351;52.284;9.160;2023-04-24T05:02:21;10.70;1.00
24207;DHT22;12351;52.284;9.160;2023-04-24T05:05:10;10.70;1.00
24207;DHT22;12351;52.284;9.160;2023-04-24T05:07:58;10.80;1.00
24207;DHT22;12351;52.284;9.160;2023-04-24T05:10:46;10.70;1.00
24207;DHT22;12351;52.284;9.160;2023-04-24T05:13:37;10.70;99.90
24207;DHT22;12351;52.284;9.160;2023-04-24T05:16:25;10.70;99.90
24207;DHT22;12351;52.284;9.160;2023-04-24T05:19:13;10.70;99.90
24207;DHT22;12351;52.284;9.160;2023-04-24T05:22:01;10.80;99.90
24207;DHT22;12351;52.284;9.160;2023-04-24T05:24:51;10.70;99.90
24207;DHT22;12351;52.284;9.160;2023-04-24T05:27:40;10.70;99.90
24207;DHT22;12351;52.284;9.160;2023-04-24T05:30:28;10.80;99.90
24207;DHT22;12351;52.284;9.160;2023-04-24T05:33:19;10.80;99.90
24207;DHT22;12351;52.284;9.160;2023-04-24T05:36:08;10.80;99.90
24207;DHT22;12351;52.284;9.160;2023-04-24T05:38:55;10.80;99.90
24207;DHT22;12351;52.284;9.160;2023-04-24T05:41:46;10.80;99.90
24207;DHT22;12351;52.284;9.160;2023-04-24T05:44:34;10.80;99.90
24207;DHT22;12351;52.284;9.160;2023-04-24T05:47:24;10.80;1.00
24207;DHT22;12351;52.284;9.160;2023-04-24T05:50:13;10.70;99.90
24207;DHT22;12351;52.284;9.160;2023-04-24T05:53:02;10.70;99.90
24207;DHT22;12351;52.284;9.160;2023-04-24T05:55:50;10.70;99.90
24207;DHT22;12351;52.284;9.160;2023-04-24T05:58:40;10.70;99.90
24207;DHT22;12351;52.284;9.160;2023-04-24T06:01:28;10.70;99.90
24207;DHT22;12351;52.284;9.160;2023-04-24T06:04:17;10.70;1.00
24207;DHT22;12351;52.284;9.160;2023-04-24T06:07:05;10.70;1.00
24207;DHT22;12351;52.284;9.160;2023-04-24T06:09:52;10.60;99.90
24207;DHT22;12351;52.284;9.160;2023-04-24T06:12:40;10.60;99.90
24207;DHT22;12351;52.284;9.160;2023-04-24T06:15:29;10.50;99.90
24207;DHT22;12351;52.284;9.160;2023-04-24T06:18:18;10.40;99.90
24207;DHT22;12351;52.284;9.160;2023-04-24T06:21:06;10.50;99.90
24207;DHT22;12351;52.284;9.160;2023-04-24T06:23:54;10.60;99.90
24207;DHT22;12351;52.284;9.160;2023-04-24T06:26:42;10.60;99.90
24207;DHT22;12351;52.284;9.160;2023-04-24T06:29:29;10.60;99.90
24207;DHT22;12351;52.284;9.160;2023-04-24T06:32:18;10.70;99.90
24207;DHT22;12351;52.284;9.160;2023-04-24T06:35:06;10.70;99.90
24207;DHT22;12351;52.284;9.160;2023-04-24T06:37:55;10.70;99.90
24207;DHT22;12351;52.284;9.160;2023-04-24T06:40:43;10.60;14.60
24207;DHT22;12351;52.284;9.160;2023-04-24T06:43:31;10.60;1.00
24207;DHT22;12351;52.284;9.160;2023-04-24T06:46:21;10.60;17.20
24207;DHT22;12351;52.284;9.160;2023-04-24T06:49:10;10.70;94.40
24207;DHT22;12351;52.284;9.160;2023-04-24T06:51:59;10.70;49.00
24207;DHT22;12351;52.284;9.160;2023-04-24T06:54:49;10.70;56.60
24207;DHT22;12351;52.284;9.160;2023-04-24T06:57:36;10.60;94.20
24207;DHT22;12351;52.284;9.160;2023-04-24T07:00:23;10.60;99.90
24207;DHT22;12351;52.284;9.160;2023-04-24T07:03:10;10.60;99.90
24207;DHT22;12351;52.284;9.160;2023-04-24T07:05:56;10.70;99.90
24207;DHT22;12351;52.284;9.160;2023-04-24T07:08:44;10.70;99.90
24207;DHT22;12351;52.284;9.160;2023-04-24T07:11:33;10.60;24.00
24207;DHT22;12351;52.284;9.160;2023-04-24T07:14:24;10.60;1.00
24207;DHT22;12351;52.284;9.160;2023-04-24T07:17:12;10.50;1.00
24207;DHT22;12351;52.284;9.160;2023-04-24T07:20:00;10.50;1.00
24207;DHT22;12351;52.284;9.160;2023-04-24T07:22:49;10.50;47.00
24207;DHT22;12351;52.284;9.160;2023-04-24T07:25:39;10.40;1.00
24207;DHT22;12351;52.284;9.160;2023-04-24T07:28:26;10.50;90.40
24207;DHT22;12351;52.284;9.160;2023-04-24T07:31:16;10.50;78.10
24207;DHT22;12351;52.284;9.160;2023-04-24T07:34:03;10.40;66.80
24207;DHT22;12351;52.284;9.160;2023-04-24T07:36:53;10.40;35.80
24207;DHT22;12351;52.284;9.160;2023-04-24T07:39:42;10.40;93.70
24207;DHT22;12351;52.284;9.160;2023-04-24T07:42:29;10.40;7.90
24207;DHT22;12351;52.284;9.160;2023-04-24T07:45:21;10.40;13.80
24207;DHT22;12351;52.284;9.160;2023-04-24T07:48:09;10.40;99.90
24207;DHT22;12351;52.284;9.160;2023-04-24T07:50:59;10.40;93.90
24207;DHT22;12351;52.284;9.160;2023-04-24T07:53:49;10.50;27.50
24207;DHT22;12351;52.284;9.160;2023-04-24T07:56:38;10.50;57.80
24207;DHT22;12351;52.284;9.160;2023-04-24T07:59:28;10.50;29.80
24207;DHT22;12351;52.284;9.160;2023-04-24T08:02:18;10.50;73.70
24207;DHT22;12351;52.284;9.160;2023-04-24T08:05:08;10.50;99.90
24207;DHT22;12351;52.284;9.160;2023-04-24T08:07:57;10.60;73.70
24207;DHT22;12351;52.284;9.160;2023-04-24T08:10:45;10.60;1.00
24207;DHT22;12351;52.284;9.160;2023-04-24T08:13:35;10.50;1.00
24207;DHT22;12351;52.284;9.160;2023-04-24T08:16:23;10.60;1.00
24207;DHT22;12351;52.284;9.160;2023-04-24T08:19:11;10.50;1.00
24207;DHT22;12351;52.284;9.160;2023-04-24T08:22:00;10.60;1.00
24207;DHT22;12351;52.284;9.160;2023-04-24T08:24:49;10.60;1.00
24207;DHT22;12351;52.284;9.160;2023-04-24T08:27:38;10.60;1.00
24207;DHT22;12351;52.284;9.160;2023-04-24T08:30:26;10.60;1.00
24207;DHT22;12351;52.284;9.160;2023-04-24T08:33:14;10.70;1.00
24207;DHT22;12351;52.284;9.160;2023-04-24T08:36:05;10.70;1.00
24207;DHT22;12351;52.284;9.160;2023-04-24T08:38:53;10.70;1.00
24207;DHT22;12351;52.284;9.160;2023-04-24T08:41:44;10.70;99.90
24207;DHT22;12351;52.284;9.160;2023-04-24T08:44:33;10.60;99.90
24207;DHT22;12351;52.284;9.160;2023-04-24T08:47:21;10.50;54.10
24207;DHT22;12351;52.284;9.160;2023-04-24T08:50:12;10.60;99.90
24207;DHT22;12351;52.284;9.160;2023-04-24T08:53:03;10.50;99.90
24207;DHT22;12351;52.284;9.160;2023-04-24T08:55:51;10.50;99.90
24207;DHT22;12351;52.284;9.160;2023-04-24T08:58:41;10.60;99.90
24207;DHT22;12351;52.284;9.160;2023-04-24T09:01:29;10.60;99.90
24207;DHT22;12351;52.284;9.160;2023-04-24T09:04:21;10.60;99.90
24207;DHT22;12351;52.284;9.160;2023-04-24T09:07:11;10.60;99.90
24207;DHT22;12351;52.284;9.160;2023-04-24T09:10:01;10.60;99.90
24207;DHT22;12351;52.284;9.160;2023-04-24T09:12:51;10.60;99.90
24207;DHT22;12351;52.284;9.160;2023-04-24T09:15:41;10.60;99.90
24207;DHT22;12351;52.284;9.160;2023-04-24T09:18:31;10.70;99.90
24207;DHT22;12351;52.284;9.160;2023-04-24T09:21:20;10.60;99.90
24207;DHT22;12351;52.284;9.160;2023-04-24T09:27:02;10.60;99.90
24207;DHT22;12351;52.284;9.160;2023-04-24T09:29:53;10.60;93.60
24207;DHT22;12351;52.284;9.160;2023-04-24T09:32:42;10.60;99.90
24207;DHT22;12351;52.284;9.160;2023-04-24T09:35:31;10.70;99.90
24207;DHT22;12351;52.284;9.160;2023-04-24T09:38:30;10.70;99.90
24207;DHT22;12351;52.284;9.160;2023-04-24T09:41:13;10.80;99.90
24207;DHT22;12351;52.284;9.160;2023-04-24T09:46:54;10.90;99.90
24207;DHT22;12351;52.284;9.160;2023-04-24T09:49:40;10.90;1.00
24207;DHT22;12351;52.284;9.160;2023-04-24T09:52:30;10.90;99.90
24207;DHT22;12351;52.284;9.160;2023-04-24T09:55:20;10.90;1.00
24207;DHT22;12351;52.284;9.160;2023-04-24T09:58:11;10.80;1.00
24207;DHT22;12351;52.284;9.160;2023-04-24T10:01:00;10.90;1.00
24207;DHT22;12351;52.284;9.160;2023-04-24T10:03:47;10.80;1.00
24207;DHT22;12351;52.284;9.160;2023-04-24T10:06:37;10.80;99.90
24207;DHT22;12351;52.284;9.160;2023-04-24T10:09:26;10.70;1.00
24207;DHT22;12351;52.284;9.160;2023-04-24T10:12:13;10.70;1.00
24207;DHT22;12351;52.284;9.160;2023-04-24T10:15:03;10.80;1.00
24207;DHT22;12351;52.284;9.160;2023-04-24T10:17:51;10.80;28.00
24207;DHT22;12351;52.284;9.160;2023-04-24T10:20:42;10.90;1.00
24207;DHT22;12351;52.284;9.160;2023-04-24T10:23:30;10.80;1.00
24207;DHT22;12351;52.284;9.160;2023-04-24T10:26:22;10.90;1.00
24207;DHT22;12351;52.284;9.160;2023-04-24T10:29:11;10.90;99.90
24207;DHT22;12351;52.284;9.160;2023-04-24T10:32:03;10.90;1.00
24207;DHT22;12351;52.284;9.160;2023-04-24T10:34:51;10.90;29.50
24207;DHT22;12351;52.284;9.160;2023-04-24T10:37:42;11.00;99.90
24207;DHT22;12351;52.284;9.160;2023-04-24T10:40:31;11.00;95.70
24207;DHT22;12351;52.284;9.160;2023-04-24T10:43:19;11.00;1.00
24207;DHT22;12351;52.284;9.160;2023-04-24T10:46:09;11.10;99.90
24207;DHT22;12351;52.284;9.160;2023-04-24T10:48:57;11.20;99.90
24207;DHT22;12351;52.284;9.160;2023-04-24T10:51:47;11.10;1.00
24207;DHT22;12351;52.284;9.160;2023-04-24T10:54:41;11.10;1.00
24207;DHT22;12351;52.284;9.160;2023-04-24T10:57:27;11.10;1.00
24207;DHT22;12351;52.284;9.160;2023-04-24T11:00:20;11.00;99.90
24207;DHT22;12351;52.284;9.160;2023-04-24T11:08:40;11.10;95.90
24207;DHT22;12351;52.284;9.160;2023-04-24T11:11:29;11.10;1.00
24207;DHT22;12351;52.284;9.160;2023-04-24T11:14:17;11.10;35.40
24207;DHT22;12351;52.284;9.160;2023-04-24T11:17:06;11.10;60.90
24207;DHT22;12351;52.284;9.160;2023-04-24T11:19:59;11.10;99.90
24207;DHT22;12351;52.284;9.160;2023-04-24T11:22:46;11.10;1.00
24207;DHT22;12351;52.284;9.160;2023-04-24T11:25:35;11.10;1.00
24207;DHT22;12351;52.284;9.160;2023-04-24T11:28:25;11.20;99.90
24207;DHT22;12351;52.284;9.160;2023-04-24T11:34:06;11.10;1.00
24207;DHT22;12351;52.284;9.160;2023-04-24T11:36:54;11.00;99.90
24207;DHT22;12351;52.284;9.160;2023-04-24T11:39:43;11.00;1.00
24207;DHT22;12351;52.284;9.160;2023-04-24T11:45:26;11.20;99.90
24207;DHT22;12351;52.284;9.160;2023-04-24T11:51:03;11.20;1.00
24207;DHT22;12351;52.284;9.160;2023-04-24T11:53:53;11.10;15.20
24207;DHT22;12351;52.284;9.160;2023-04-24T11:56:45;11.10;1.00
24207;DHT22;12351;52.284;9.160;2023-04-24T11:59:35;11.00;1.00
24207;DHT22;12351;52.284;9.160;2023-04-24T12:02:26;10.80;94.80
24207;DHT22;12351;52.284;9.160;2023-04-24T12:08:06;10.70;1.00
24207;DHT22;12351;52.284;9.160;2023-04-24T12:10:54;10.70;1.00
24207;DHT22;12351;52.284;9.160;2023-04-24T12:13:43;10.70;1.00
24207;DHT22;12351;52.284;9.160;2023-04-24T12:16:32;10.60;99.90
24207;DHT22;12351;52.284;9.160;2023-04-24T12:19:25;10.60;1.00
24207;DHT22;12351;52.284;9.160;2023-04-24T12:22:11;10.60;1.00
24207;DHT22;12351;52.284;9.160;2023-04-24T12:25:01;10.50;1.00
24207;DHT22;12351;52.284;9.160;2023-04-24T12:30:42;10.30;1.00
24207;DHT22;12351;52.284;9.160;2023-04-24T12:33:32;10.40;1.00
24207;DHT22;12351;52.284;9.160;2023-04-24T12:36:22;10.30;1.00
24207;DHT22;12351;52.284;9.160;2023-04-24T12:39:14;10.20;1.00
24207;DHT22;12351;52.284;9.160;2023-04-24T12:42:04;10.20;1.00
24207;DHT22;12351;52.284;9.160;2023-04-24T12:44:56;10.30;1.00
24207;DHT22;12351;52.284;9.160;2023-04-24T12:47:45;10.20;1.00
24207;DHT22;12351;52.284;9.160;2023-04-24T12:50:31;10.20;1.00
24207;DHT22;12351;52.284;9.160;2023-04-24T12:53:21;10.20;1.00
24207;DHT22;12351;52.284;9.160;2023-04-24T12:56:11;10.10;1.00
24207;DHT22;12351;52.284;9.160;2023-04-24T12:59:00;10.10;1.00
24207;DHT22;12351;52.284;9.160;2023-04-24T13:01:50;10.10;1.00
24207;DHT22;12351;52.284;9.160;2023-04-24T13:04:38;10.00;1.00
24207;DHT22;12351;52.284;9.160;2023-04-24T13:07:27;9.90;1.00
24207;DHT22;12351;52.284;9.160;2023-04-24T13:10:17;9.70;1.00
24207;DHT22;12351;52.284;9.160;2023-04-24T13:13:05;9.70;1.00
24207;DHT22;12351;52.284;9.160;2023-04-24T13:15:54;9.60;1.00
24207;DHT22;12351;52.284;9.160;2023-04-24T13:18:42;9.60;65.00
24207;DHT22;12351;52.284;9.160;2023-04-24T13:21:30;9.50;72.70
24207;DHT22;12351;52.284;9.160;2023-04-24T13:24:20;9.50;73.60
24207;DHT22;12351;52.284;9.160;2023-04-24T13:27:10;9.30;83.30
24207;DHT22;12351;52.284;9.160;2023-04-24T13:29:57;9.30;99.90
24207;DHT22;12351;52.284;9.160;2023-04-24T13:32:45;9.30;99.90
24207;DHT22;12351;52.284;9.160;2023-04-24T13:35:33;9.30;99.90
24207;DHT22;12351;52.284;9.160;2023-04-24T13:38:21;9.30;99.90
24207;DHT22;12351;52.284;9.160;2023-04-24T13:41:11;9.30;99.90
24207;DHT22;12351;52.284;9.160;2023-04-24T13:43:59;9.30;99.90
24207;DHT22;12351;52.284;9.160;2023-04-24T13:46:48;9.30;99.90
24207;DHT22;12351;52.284;9.160;2023-04-24T13:49:39;9.30;99.90
24207;DHT22;12351;52.284;9.160;2023-04-24T13:52:26;9.20;99.90
24207;DHT22;12351;52.284;9.160;2023-04-24T13:55:17;9.10;99.90
24207;DHT22;12351;52.284;9.160;2023-04-24T13:58:04;9.10;99.90
24207;DHT22;12351;52.284;9.160;2023-04-24T14:00:54;9.10;99.90
24207;DHT22;12351;52.284;9.160;2023-04-24T14:03:42;9.10;99.90
24207;DHT22;12351;52.284;9.160;2023-04-24T14:06:30;9.00;99.90
24207;DHT22;12351;52.284;9.160;2023-04-24T14:09:19;9.00;99.90
24207;DHT22;12351;52.284;9.160;2023-04-24T14:12:10;8.90;99.90
24207;DHT22;12351;52.284;9.160;2023-04-24T14:14:57;8.90;99.90
24207;DHT22;12351;52.284;9.160;2023-04-24T14:17:44;8.90;99.90
24207;DHT22;12351;52.284;9.160;2023-04-24T14:20:33;9.00;99.90
24207;DHT22;12351;52.284;9.160;2023-04-24T14:23:22;8.90;99.90
24207;DHT22;12351;52.284;9.160;2023-04-24T14:26:10;8.90;99.90
24207;DHT22;12351;52.284;9.160;2023-04-24T14:28:58;8.80;99.90
24207;DHT22;12351;52.284;9.160;2023-04-24T14:31:47;8.80;99.90
24207;DHT22;12351;52.284;9.160;2023-04-24T14:34:34;8.80;99.90
24207;DHT22;12351;52.284;9.160;2023-04-24T14:37:22;8.80;99.90
24207;DHT22;12351;52.284;9.160;2023-04-24T14:40:13;8.70;99.90
24207;DHT22;12351;52.284;9.160;2023-04-24T14:43:00;8.80;99.90
24207;DHT22;12351;52.284;9.160;2023-04-24T14:45:50;8.70;99.90
24207;DHT22;12351;52.284;9.160;2023-04-24T14:48:40;8.80;99.90
24207;DHT22;12351;52.284;9.160;2023-04-24T14:51:28;8.90;99.90
24207;DHT22;12351;52.284;9.160;2023-04-24T14:54:17;8.90;99.90
24207;DHT22;12351;52.284;9.160;2023-04-24T14:57:09;9.00;99.90
24207;DHT22;12351;52.284;9.160;2023-04-24T14:59:59;8.90;99.90
24207;DHT22;12351;52.284;9.160;2023-04-24T15:02:53;8.90;99.90
24207;DHT22;12351;52.284;9.160;2023-04-24T15:05:41;9.00;99.90
24207;DHT22;12351;52.284;9.160;2023-04-24T15:08:31;9.00;99.90
24207;DHT22;12351;52.284;9.160;2023-04-24T15:11:23;9.00;99.90
24207;DHT22;12351;52.284;9.160;2023-04-24T15:14:13;8.90;99.90
24207;DHT22;12351;52.284;9.160;2023-04-24T15:17:00;9.00;99.90
24207;DHT22;12351;52.284;9.160;2023-04-24T15:19:46;9.00;99.90
24207;DHT22;12351;52.284;9.160;2023-04-24T15:22:35;8.90;99.90
24207;DHT22;12351;52.284;9.160;2023-04-24T15:25:24;9.00;99.90
24207;DHT22;12351;52.284;9.160;2023-04-24T15:28:15;9.00;99.90
24207;DHT22;12351;52.284;9.160;2023-04-24T15:31:04;9.00;99.90
24207;DHT22;12351;52.284;9.160;2023-04-24T15:33:55;9.00;99.90
24207;DHT22;12351;52.284;9.160;2023-04-24T15:36:46;9.00;99.90
24207;DHT22;12351;52.284;9.160;2023-04-24T15:39:34;9.10;99.90
24207;DHT22;12351;52.284;9.160;2023-04-24T15:42:22;9.00;99.90
24207;DHT22;12351;52.284;9.160;2023-04-24T15:45:09;9.00;99.90
24207;DHT22;12351;52.284;9.160;2023-04-24T15:47:57;9.00;99.90
24207;DHT22;12351;52.284;9.160;2023-04-24T15:50:44;9.00;99.90
24207;DHT22;12351;52.284;9.160;2023-04-24T15:53:32;8.90;99.90
24207;DHT22;12351;52.284;9.160;2023-04-24T15:56:19;8.90;99.90
24207;DHT22;12351;52.284;9.160;2023-04-24T15:59:05;8.90;99.90
24207;DHT22;12351;52.284;9.160;2023-04-24T16:01:52;8.90;99.90
24207;DHT22;12351;52.284;9.160;2023-04-24T16:04:40;8.80;99.90
24207;DHT22;12351;52.284;9.160;2023-04-24T16:07:27;8.80;99.90
24207;DHT22;12351;52.284;9.160;2023-04-24T16:10:15;8.70;99.90
24207;DHT22;12351;52.284;9.160;2023-04-24T16:13:02;8.70;99.90
24207;DHT22;12351;52.284;9.160;2023-04-24T16:15:50;8.60;99.90
24207;DHT22;12351;52.284;9.160;2023-04-24T16:18:38;8.60;99.90
24207;DHT22;12351;52.284;9.160;2023-04-24T16:21:25;8.60;99.90
24207;DHT22;12351;52.284;9.160;2023-04-24T16:24:12;8.70;99.90
24207;DHT22;12351;52.284;9.160;2023-04-24T16:26:59;8.70;99.90
24207;DHT22;12351;52.284;9.160;2023-04-24T16:29:47;8.70;99.90
24207;DHT22;12351;52.284;9.160;2023-04-24T16:32:33;8.70;99.90
24207;DHT22;12351;52.284;9.160;2023-04-24T16:35:20;8.70;99.90
24207;DHT22;12351;52.284;9.160;2023-04-24T16:38:07;8.70;99.90
24207;DHT22;12351;52.284;9.160;2023-04-24T16:40:54;8.70;99.90
24207;DHT22;12351;52.284;9.160;2023-04-24T16:43:41;8.70;99.90
24207;DHT22;12351;52.284;9.160;2023-04-24T16:46:28;8.70;99.90
24207;DHT22;12351;52.284;9.160;2023-04-24T16:49:15;8.60;99.90
24207;DHT22;12351;52.284;9.160;2023-04-24T16:52:03;8.60;99.90
24207;DHT22;12351;52.284;9.160;2023-04-24T16:54:50;8.60;99.90
24207;DHT22;12351;52.284;9.160;2023-04-24T16:57:37;8.60;99.90
24207;DHT22;12351;52.284;9.160;2023-04-24T17:00:24;8.50;99.90
24207;DHT22;12351;52.284;9.160;2023-04-24T17:03:12;8.50;99.90
24207;DHT22;12351;52.284;9.160;2023-04-24T17:05:59;8.60;99.90
24207;DHT22;12351;52.284;9.160;2023-04-24T17:08:46;8.50;99.90
24207;DHT22;12351;52.284;9.160;2023-04-24T17:11:33;8.60;99.90
24207;DHT22;12351;52.284;9.160;2023-04-24T17:14:20;8.60;99.90
24207;DHT22;12351;52.284;9.160;2023-04-24T17:17:09;8.60;99.90
24207;DHT22;12351;52.284;9.160;2023-04-24T17:19:56;8.50;99.90
24207;DHT22;12351;52.284;9.160;2023-04-24T17:22:43;8.50;99.90
24207;DHT22;12351;52.284;9.160;2023-04-24T17:25:30;8.60;99.90
24207;DHT22;12351;52.284;9.160;2023-04-24T17:28:22;8.50;99.90
24207;DHT22;12351;52.284;9.160;2023-04-24T17:31:08;8.50;99.90
24207;DHT22;12351;52.284;9.160;2023-04-24T17:33:55;8.40;99.90
24207;DHT22;12351;52.284;9.160;2023-04-24T17:36:44;8.50;99.90
24207;DHT22;12351;52.284;9.160;2023-04-24T17:39:31;8.50;99.90
24207;DHT22;12351;52.284;9.160;2023-04-24T17:42:18;8.50;99.90
24207;DHT22;12351;52.284;9.160;2023-04-24T17:45:06;8.60;99.90
24207;DHT22;12351;52.284;9.160;2023-04-24T17:47:53;8.70;99.90
24207;DHT22;12351;52.284;9.160;2023-04-24T17:50:41;8.70;95.60
24207;DHT22;12351;52.284;9.160;2023-04-24T17:53:28;8.70;68.20
24207;DHT22;12351;52.284;9.160;2023-04-24T17:56:15;8.70;57.30
24207;DHT22;12351;52.284;9.160;2023-04-24T17:59:02;8.60;40.10
24207;DHT22;12351;52.284;9.160;2023-04-24T18:01:49;8.60;27.30
24207;DHT22;12351;52.284;9.160;2023-04-24T18:04:37;8.60;11.20
24207;DHT22;12351;52.284;9.160;2023-04-24T18:07:25;8.60;1.00
24207;DHT22;12351;52.284;9.160;2023-04-24T18:10:12;8.50;1.00
24207;DHT22;12351;52.284;9.160;2023-04-24T18:12:59;8.50;1.20
24207;DHT22;12351;52.284;9.160;2023-04-24T18:15:48;8.40;14.60
24207;DHT22;12351;52.284;9.160;2023-04-24T18:18:35;8.40;1.00
24207;DHT22;12351;52.284;9.160;2023-04-24T18:21:23;8.40;8.10